createdAt,value
2018-07-20T00:01:36.990Z,94.80
2018-07-20T00:04:05.262Z,94.80
2018-07-20T00:06:33.498Z,94.80
2018-07-20T00:09:01.717Z,94.90
2018-07-20T00:11:29.928Z,94.90
2018-07-20T00:13:58.320Z,95.00
2018-07-20T00:16:26.570Z,95.10
2018-07-20T00:18:54.773Z,95.20
2018-07-20T00:21:22.960Z,95.20
2018-07-20T00:23:51.680Z,95.20
2018-07-20T00:26:19.878Z,95.10
2018-07-20T00:28:48.050Z,95.00
2018-07-20T00:31:16.216Z,95.00
2018-07-20T00:33:44.459Z,94.80
2018-07-20T00:38:40.683Z,94.60
2018-07-20T00:41:08.867Z,94.70
2018-07-20T00:43:37.092Z,94.30
2018-07-20T00:46:09.203Z,94.30
2018-07-20T00:48:37.462Z,94.40
2018-07-20T00:51:06.116Z,94.40
2018-07-20T00:53:34.333Z,94.50
2018-07-20T00:56:02.729Z,94.60
2018-07-20T00:58:30.941Z,94.60
2018-07-20T01:00:59.190Z,94.60
2018-07-20T01:03:27.391Z,94.70
2018-07-20T01:05:55.603Z,94.70
2018-07-20T01:08:23.800Z,94.60
2018-07-20T01:10:52.038Z,94.60
2018-07-20T01:13:20.243Z,94.60
2018-07-20T01:15:49.539Z,94.70
2018-07-20T01:18:17.775Z,94.80
2018-07-20T01:20:45.975Z,94.70
2018-07-20T01:23:14.181Z,94.80
2018-07-20T01:25:43.455Z,94.70
2018-07-20T01:28:11.654Z,94.70
2018-07-20T01:30:39.870Z,94.70
2018-07-20T01:33:08.130Z,94.90
2018-07-20T01:35:37.005Z,94.50
2018-07-20T01:38:05.178Z,94.40
2018-07-20T01:40:33.377Z,94.30
2018-07-20T01:43:01.571Z,94.40
2018-07-20T01:45:30.856Z,94.50
2018-07-20T01:47:59.029Z,94.50
2018-07-20T01:50:27.278Z,94.40
2018-07-20T01:52:55.546Z,94.40
2018-07-20T01:55:24.510Z,94.40
2018-07-20T01:57:53.746Z,94.50
2018-07-20T02:00:21.926Z,94.60
2018-07-20T02:02:50.106Z,94.60
2018-07-20T02:05:18.508Z,94.60
2018-07-20T02:07:46.753Z,94.60
2018-07-20T02:10:15.198Z,94.50
2018-07-20T02:12:43.407Z,94.60
2018-07-20T02:15:11.794Z,94.60
2018-07-20T02:17:40.008Z,94.60
2018-07-20T02:20:08.214Z,94.50
2018-07-20T02:22:36.446Z,94.50
2018-07-20T02:25:04.667Z,94.70
2018-07-20T02:27:32.866Z,95.10
2018-07-20T02:30:01.130Z,94.80
2018-07-20T02:32:29.375Z,94.90
2018-07-20T02:34:57.652Z,94.80
2018-07-20T02:37:25.842Z,94.90
2018-07-20T02:39:54.272Z,94.90
2018-07-20T02:42:22.507Z,94.80
2018-07-20T02:44:50.910Z,94.90
2018-07-20T02:47:19.156Z,94.90
2018-07-20T02:49:47.354Z,94.90
2018-07-20T02:52:15.655Z,95.00
2018-07-20T02:54:44.007Z,95.20
2018-07-20T02:57:12.190Z,95.20
2018-07-20T02:59:40.392Z,95.20
2018-07-20T03:02:08.613Z,95.30
2018-07-20T03:04:36.900Z,95.30
2018-07-20T03:07:05.332Z,95.30
2018-07-20T03:09:33.567Z,95.30
2018-07-20T03:12:01.786Z,95.40
2018-07-20T03:14:30.278Z,95.50
2018-07-20T03:16:58.550Z,95.60
2018-07-20T03:19:26.806Z,95.60
2018-07-20T03:21:54.980Z,95.60
2018-07-20T03:24:23.305Z,95.40
2018-07-20T03:26:51.556Z,95.50
2018-07-20T03:29:20.343Z,95.40
2018-07-20T03:31:48.725Z,95.40
2018-07-20T03:34:16.937Z,95.40
2018-07-20T03:36:45.340Z,95.50
2018-07-20T03:39:13.559Z,95.50
2018-07-20T03:41:41.793Z,95.50
2018-07-20T03:44:10.148Z,95.60
2018-07-20T03:46:38.416Z,95.60
2018-07-20T03:49:06.819Z,95.60
2018-07-20T03:51:34.972Z,95.70
2018-07-20T03:54:03.199Z,95.60
2018-07-20T03:56:31.428Z,95.70
2018-07-20T03:58:59.661Z,95.70
2018-07-20T04:01:27.877Z,95.70
2018-07-20T04:03:56.196Z,95.70
2018-07-20T04:06:24.364Z,95.80
2018-07-20T04:08:52.633Z,95.80
2018-07-20T04:11:20.833Z,95.70
2018-07-20T04:18:25.121Z,95.90
2018-07-20T04:20:53.350Z,96.00
2018-07-20T04:23:21.574Z,96.10
2018-07-20T04:25:49.887Z,96.10
2018-07-20T04:28:18.074Z,96.20
2018-07-20T04:30:46.277Z,96.10
2018-07-20T04:33:14.562Z,96.10
2018-07-20T04:35:43.789Z,96.10
2018-07-20T04:38:11.992Z,96.10
2018-07-20T04:40:40.243Z,96.00
2018-07-20T04:43:08.509Z,95.90
2018-07-20T04:45:36.743Z,95.80
2018-07-20T04:48:05.002Z,95.70
2018-07-20T04:50:33.248Z,95.70
2018-07-20T04:53:01.520Z,96.10
2018-07-20T04:55:29.873Z,95.80
2018-07-20T04:57:58.085Z,95.70
2018-07-20T05:00:26.255Z,95.50
2018-07-20T05:02:54.510Z,95.40
2018-07-20T05:05:22.945Z,95.30
2018-07-20T05:07:51.096Z,95.30
2018-07-20T05:10:19.268Z,95.10
2018-07-20T05:12:47.472Z,95.10
2018-07-20T05:15:15.852Z,95.10
2018-07-20T05:17:44.063Z,95.20
2018-07-20T05:20:12.303Z,95.10
2018-07-20T05:22:40.521Z,94.90
2018-07-20T05:25:08.775Z,95.10
2018-07-20T05:27:36.952Z,94.90
2018-07-20T05:30:05.369Z,95.00
2018-07-20T05:32:33.614Z,94.90
2018-07-20T05:35:01.927Z,94.90
2018-07-20T05:37:30.549Z,94.40
2018-07-20T05:39:58.767Z,94.20
2018-07-20T05:42:27.004Z,94.00
2018-07-20T05:44:55.337Z,93.70
2018-07-20T05:47:23.519Z,93.70
2018-07-20T05:49:51.707Z,93.90
2018-07-20T05:52:19.952Z,93.90
2018-07-20T05:54:48.256Z,93.60
2018-07-20T05:57:16.476Z,93.40
2018-07-20T05:59:44.992Z,92.80
2018-07-20T06:02:13.635Z,92.90
2018-07-20T06:04:41.816Z,92.50
2018-07-20T06:07:10.076Z,92.60
2018-07-20T06:09:38.345Z,92.50
2018-07-20T06:12:06.706Z,92.10
2018-07-20T06:14:35.063Z,92.20
2018-07-20T06:17:03.294Z,91.90
2018-07-20T06:19:31.519Z,91.90
2018-07-20T06:21:59.708Z,91.60
2018-07-20T06:24:28.018Z,91.30
2018-07-20T06:26:56.247Z,91.50
2018-07-20T06:29:24.498Z,91.60
2018-07-20T06:31:52.772Z,91.80
2018-07-20T06:34:21.577Z,91.50
2018-07-20T06:36:49.820Z,91.10
2018-07-20T06:39:18.036Z,91.20
2018-07-20T06:41:46.224Z,91.20
2018-07-20T06:44:14.596Z,91.30
2018-07-20T06:46:42.880Z,91.10
2018-07-20T06:49:11.145Z,90.80
2018-07-20T06:51:39.407Z,90.70
2018-07-20T06:54:08.640Z,90.50
2018-07-20T06:56:36.904Z,90.40
2018-07-20T06:59:05.245Z,90.60
2018-07-20T07:01:33.804Z,89.90
2018-07-20T07:04:02.449Z,89.90
2018-07-20T07:06:30.654Z,90.00
2018-07-20T07:08:59.060Z,89.20
2018-07-20T07:11:27.323Z,89.20
2018-07-20T07:13:55.730Z,88.10
2018-07-20T07:16:23.982Z,87.50
2018-07-20T07:18:52.172Z,88.30
2018-07-20T07:21:20.428Z,87.60
2018-07-20T07:23:48.866Z,87.60
2018-07-20T07:26:17.110Z,88.30
2018-07-20T07:28:45.316Z,87.80
2018-07-20T07:31:13.515Z,86.80
2018-07-20T07:33:41.758Z,86.80
2018-07-20T07:36:09.980Z,86.60
2018-07-20T07:38:38.185Z,86.60
2018-07-20T07:43:34.542Z,86.70
2018-07-20T07:46:02.883Z,86.70
2018-07-20T07:48:31.034Z,86.80
2018-07-20T07:50:59.270Z,86.30
2018-07-20T07:53:27.453Z,87.20
2018-07-20T07:55:55.771Z,86.30
2018-07-20T07:58:24.001Z,86.20
2018-07-20T08:03:20.347Z,85.60
2018-07-20T08:05:48.819Z,85.30
2018-07-20T08:08:17.070Z,85.20
2018-07-20T08:10:45.341Z,85.10
2018-07-20T08:13:13.568Z,83.70
2018-07-20T08:15:41.945Z,83.40
2018-07-20T08:18:10.153Z,84.60
2018-07-20T08:20:38.548Z,85.30
2018-07-20T08:23:06.828Z,85.50
2018-07-20T08:25:35.032Z,85.80
2018-07-20T08:28:03.244Z,84.90
2018-07-20T08:30:31.598Z,85.50
2018-07-20T08:32:59.837Z,85.50
2018-07-20T08:35:28.096Z,86.40
2018-07-20T08:40:31.124Z,86.00
2018-07-20T08:42:59.397Z,85.40
2018-07-20T08:45:27.693Z,85.60
2018-07-20T08:47:56.033Z,85.10
2018-07-20T08:50:24.270Z,84.80
2018-07-20T08:52:52.483Z,85.00
2018-07-20T08:55:20.710Z,81.80
2018-07-20T08:57:48.980Z,83.10
2018-07-20T09:00:17.228Z,84.30
2018-07-20T09:02:45.450Z,82.50
2018-07-20T09:05:13.846Z,83.70
2018-07-20T09:07:42.524Z,83.50
2018-07-20T09:10:11.168Z,83.20
2018-07-20T09:12:39.530Z,83.30
2018-07-20T09:15:08.785Z,82.20
2018-07-20T09:17:36.979Z,82.40
2018-07-20T09:22:33.144Z,83.80
2018-07-20T09:25:01.423Z,83.30
2018-07-20T09:30:22.280Z,82.50
2018-07-20T09:32:50.524Z,82.50
2018-07-20T09:35:19.028Z,84.20
2018-07-20T09:37:47.321Z,83.00
2018-07-20T09:40:15.538Z,82.50
2018-07-20T09:42:43.828Z,82.00
2018-07-20T09:45:12.126Z,84.20
2018-07-20T09:47:40.374Z,83.30
2018-07-20T09:50:08.601Z,82.10
2018-07-20T09:52:36.771Z,82.00
2018-07-20T09:55:05.174Z,82.40
2018-07-20T09:57:33.430Z,83.60
2018-07-20T10:00:01.635Z,83.50
2018-07-20T10:02:29.909Z,83.40
2018-07-20T10:04:58.330Z,81.10
2018-07-20T10:07:26.562Z,83.10
2018-07-20T10:09:54.805Z,82.20
2018-07-20T10:12:23.011Z,80.80
2018-07-20T10:14:51.377Z,80.30
2018-07-20T10:17:19.637Z,78.70
2018-07-20T10:19:47.910Z,79.90
2018-07-20T10:22:16.086Z,79.80
2018-07-20T10:24:44.481Z,80.40
2018-07-20T10:27:12.750Z,80.40
2018-07-20T10:29:41.007Z,80.10
2018-07-20T10:32:09.217Z,79.40
2018-07-20T10:34:37.556Z,79.50
2018-07-20T10:37:05.808Z,79.50
2018-07-20T10:39:34.087Z,79.40
2018-07-20T10:42:02.373Z,80.30
2018-07-20T10:44:30.682Z,79.60
2018-07-20T10:46:59.013Z,80.40
2018-07-20T10:49:27.230Z,80.20
2018-07-20T10:51:55.472Z,79.90
2018-07-20T10:54:23.702Z,79.10
2018-07-20T10:56:51.904Z,78.90
2018-07-20T10:59:20.116Z,79.00
2018-07-20T11:01:48.383Z,79.50
2018-07-20T11:04:16.647Z,79.60
2018-07-20T11:06:44.833Z,78.30
2018-07-20T11:09:13.052Z,78.70
2018-07-20T11:11:41.246Z,78.70
2018-07-20T11:14:11.665Z,77.80
2018-07-20T11:16:39.891Z,77.50
2018-07-20T11:19:08.110Z,77.70
2018-07-20T11:21:36.358Z,77.20
2018-07-20T11:24:04.676Z,76.30
2018-07-20T11:26:32.849Z,77.70
2018-07-20T11:29:01.048Z,76.70
2018-07-20T11:33:57.261Z,76.60
2018-07-20T11:36:25.443Z,73.70
2018-07-20T11:38:53.626Z,73.30
2018-07-20T11:41:21.885Z,74.20
2018-07-20T11:43:51.366Z,73.20
2018-07-20T11:46:19.581Z,72.70
2018-07-20T11:48:47.786Z,72.50
2018-07-20T11:51:15.991Z,72.10
2018-07-20T11:53:44.257Z,70.80
2018-07-20T11:56:12.487Z,71.60
2018-07-20T11:58:40.667Z,73.00
2018-07-20T12:01:08.881Z,72.30
2018-07-20T12:03:37.055Z,71.40
2018-07-20T12:06:05.336Z,71.60
2018-07-20T12:08:33.568Z,72.00
2018-07-20T12:13:29.920Z,71.50
2018-07-20T12:15:58.231Z,71.30
2018-07-20T12:18:26.401Z,70.30
2018-07-20T12:20:54.603Z,71.60
2018-07-20T12:23:22.823Z,71.30
2018-07-20T12:28:19.068Z,71.50
2018-07-20T12:30:47.240Z,70.40
2018-07-20T12:33:15.447Z,71.60
2018-07-20T12:35:44.027Z,71.00
2018-07-20T12:38:12.250Z,69.90
2018-07-20T12:40:40.435Z,68.60
2018-07-20T12:43:08.666Z,69.30
2018-07-20T12:45:36.937Z,69.20
2018-07-20T12:48:05.121Z,69.60
2018-07-20T12:50:33.287Z,69.20
2018-07-20T12:53:01.506Z,69.60
2018-07-20T12:55:29.869Z,68.80
2018-07-20T12:57:58.098Z,70.30
2018-07-20T13:00:26.288Z,69.30
2018-07-20T13:02:54.445Z,68.50
2018-07-20T13:05:23.734Z,69.50
2018-07-20T13:07:51.903Z,70.30
2018-07-20T13:10:20.128Z,69.60
2018-07-20T13:12:48.348Z,69.80
2018-07-20T13:15:16.568Z,69.70
2018-07-20T13:17:44.819Z,70.00
2018-07-20T13:20:13.043Z,70.00
2018-07-20T13:22:41.321Z,69.40
2018-07-20T13:25:09.576Z,67.60
2018-07-20T13:27:37.802Z,67.50
2018-07-20T13:32:35.437Z,66.20
2018-07-20T13:35:03.630Z,65.70
2018-07-20T13:37:31.861Z,67.00
2018-07-20T13:40:00.053Z,67.70
2018-07-20T13:42:28.282Z,66.50
2018-07-20T13:44:56.551Z,66.70
2018-07-20T13:47:24.780Z,64.90
2018-07-20T13:52:20.985Z,64.60
2018-07-20T13:54:49.240Z,65.70
2018-07-20T13:57:17.460Z,65.30
2018-07-20T13:59:46.643Z,61.90
2018-07-20T14:02:14.910Z,63.20
2018-07-20T14:04:43.335Z,64.80
2018-07-20T14:07:12.337Z,63.80
2018-07-20T14:09:40.519Z,63.00
2018-07-20T14:12:09.005Z,61.80
2018-07-20T14:14:37.337Z,62.90
2018-07-20T14:17:05.564Z,63.50
2018-07-20T14:19:33.759Z,64.40
2018-07-20T14:22:01.940Z,63.10
2018-07-20T14:24:30.197Z,65.40
2018-07-20T14:26:58.438Z,66.60
2018-07-20T14:29:26.683Z,68.20
2018-07-20T14:31:55.115Z,70.90
2018-07-20T14:34:23.367Z,72.90
2018-07-20T14:36:51.616Z,73.10
2018-07-20T14:39:19.906Z,73.50
2018-07-20T14:41:48.059Z,74.70
2018-07-20T14:44:16.437Z,74.80
2018-07-20T14:46:44.642Z,74.80
2018-07-20T14:49:12.976Z,72.00
2018-07-20T14:51:41.206Z,74.00
2018-07-20T14:54:09.484Z,73.90
2018-07-20T14:56:37.730Z,72.20
2018-07-20T15:01:33.892Z,74.20
2018-07-20T15:04:02.220Z,74.50
2018-07-20T15:06:30.464Z,74.10
2018-07-20T15:08:58.736Z,75.60
2018-07-20T15:11:27.033Z,75.50
2018-07-20T15:13:56.759Z,75.50
2018-07-20T15:16:25.079Z,74.50
2018-07-20T15:21:21.304Z,74.40
2018-07-20T15:23:49.622Z,75.60
2018-07-20T15:26:17.839Z,77.20
2018-07-20T15:28:46.040Z,78.50
2018-07-20T15:31:14.377Z,80.20
2018-07-20T15:33:42.567Z,80.50
2018-07-20T15:36:10.949Z,80.40
2018-07-20T15:38:39.174Z,80.20
2018-07-20T15:41:08.188Z,81.80
2018-07-20T15:43:36.786Z,82.90
2018-07-20T15:48:33.218Z,82.20
2018-07-20T15:51:01.552Z,82.80
2018-07-20T15:53:37.362Z,83.80
2018-07-20T15:55:58.178Z,84.40
2018-07-20T15:58:26.445Z,84.60
2018-07-20T16:00:54.627Z,85.30
2018-07-20T16:03:22.835Z,85.50
2018-07-20T16:05:52.215Z,83.80
2018-07-20T16:08:20.322Z,84.40
2018-07-20T16:10:48.530Z,86.90
2018-07-20T16:13:16.686Z,87.00
2018-07-20T16:15:45.002Z,85.70
2018-07-20T16:18:13.163Z,86.70
2018-07-20T16:20:41.364Z,88.00
2018-07-20T16:23:09.650Z,87.30
2018-07-20T16:25:37.996Z,87.90
2018-07-20T16:28:06.302Z,89.70
2018-07-20T16:30:34.520Z,89.20
2018-07-20T16:33:02.715Z,88.50
2018-07-20T16:35:31.114Z,89.00
2018-07-20T16:37:59.321Z,89.90
2018-07-20T16:40:27.528Z,90.10
2018-07-20T16:42:55.805Z,89.10
2018-07-20T16:47:52.018Z,88.50
2018-07-20T16:50:20.170Z,88.10
2018-07-20T16:52:48.937Z,88.00
2018-07-20T16:55:17.267Z,89.10
2018-07-20T16:57:45.477Z,89.20
2018-07-20T17:00:13.769Z,87.10
2018-07-20T17:02:41.990Z,87.00
2018-07-20T17:05:10.339Z,87.70
2018-07-20T17:07:38.508Z,87.60
2018-07-20T17:10:07.629Z,88.00
2018-07-20T17:12:35.823Z,88.20
2018-07-20T17:15:04.363Z,88.50
2018-07-20T17:17:32.574Z,89.20
2018-07-20T17:20:00.810Z,88.60
2018-07-20T17:22:29.036Z,87.60
2018-07-20T17:24:57.245Z,88.50
2018-07-20T17:27:25.670Z,88.50
2018-07-20T17:29:53.844Z,89.20
2018-07-20T17:34:51.073Z,87.00
2018-07-20T17:37:19.235Z,87.70
2018-07-20T17:39:47.538Z,86.20
2018-07-20T17:42:15.709Z,86.40
2018-07-20T17:44:43.996Z,86.40
2018-07-20T17:47:12.205Z,86.80
2018-07-20T17:49:40.407Z,85.80
2018-07-20T17:52:08.571Z,85.90
2018-07-20T17:54:37.882Z,86.10
2018-07-20T17:57:06.087Z,86.10
2018-07-20T17:59:34.303Z,85.80
2018-07-20T18:02:02.494Z,85.10
2018-07-20T18:04:31.064Z,86.60
2018-07-20T18:06:59.568Z,86.70
2018-07-20T18:09:27.729Z,86.10
2018-07-20T18:11:55.945Z,85.20
2018-07-20T18:14:24.325Z,84.80
2018-07-20T18:16:52.512Z,85.90
2018-07-20T18:21:48.690Z,84.70
2018-07-20T18:24:17.013Z,83.90
2018-07-20T18:26:45.199Z,84.80
2018-07-20T18:29:13.388Z,85.00
2018-07-20T18:31:41.668Z,85.40
2018-07-20T18:34:10.955Z,85.30
2018-07-20T18:36:39.218Z,84.00
2018-07-20T18:39:09.562Z,84.50
2018-07-20T18:41:38.436Z,84.20
2018-07-20T18:44:08.965Z,83.30
2018-07-20T18:46:37.573Z,83.60
2018-07-20T18:49:05.768Z,83.70
2018-07-20T18:51:33.959Z,83.00
2018-07-20T18:54:02.248Z,83.50
2018-07-20T18:56:30.580Z,84.20
2018-07-20T18:58:58.827Z,84.40
2018-07-20T19:01:27.705Z,84.40
2018-07-20T19:03:55.978Z,83.20
2018-07-20T19:06:24.502Z,81.90
2018-07-20T19:08:52.766Z,81.70
2018-07-20T19:11:20.968Z,81.30
2018-07-20T19:13:49.474Z,81.20
2018-07-20T19:16:17.720Z,79.70
2018-07-20T19:18:46.870Z,78.70
2018-07-20T19:21:15.124Z,78.90
2018-07-20T19:23:43.418Z,79.10
2018-07-20T19:26:11.660Z,79.70
2018-07-20T19:28:39.884Z,80.60
2018-07-20T19:31:08.082Z,79.50
2018-07-20T19:33:36.328Z,79.80
2018-07-20T19:36:04.756Z,79.90
2018-07-20T19:38:32.955Z,79.80
2018-07-20T19:41:01.403Z,80.80
2018-07-20T19:43:29.606Z,82.00
2018-07-20T19:45:57.844Z,83.00
2018-07-20T19:48:26.043Z,83.50
2018-07-20T19:50:54.288Z,84.00
2018-07-20T19:53:22.498Z,84.40
2018-07-20T19:55:50.899Z,85.00
2018-07-20T20:00:47.144Z,85.20
2018-07-20T20:03:15.347Z,82.20
2018-07-20T20:05:43.671Z,81.50
2018-07-20T20:08:11.997Z,81.60
2018-07-20T20:10:40.242Z,80.00
2018-07-20T20:13:08.499Z,79.70
2018-07-20T20:15:36.816Z,79.30
2018-07-20T20:20:32.974Z,79.00
2018-07-20T20:23:01.147Z,79.20
2018-07-20T20:25:29.448Z,79.30
2018-07-20T20:27:57.595Z,79.60
2018-07-20T20:30:25.795Z,80.00
2018-07-20T20:32:53.955Z,80.30
2018-07-20T20:35:22.326Z,80.70
2018-07-20T20:37:50.560Z,81.10
2018-07-20T20:40:18.815Z,81.20
2018-07-20T20:42:47.064Z,81.60
2018-07-20T20:45:21.131Z,82.10
2018-07-20T20:47:49.313Z,82.40
2018-07-20T20:50:17.735Z,82.80
2018-07-20T20:52:45.880Z,83.30
2018-07-20T20:55:14.562Z,83.40
2018-07-20T20:57:42.822Z,83.40
2018-07-20T21:00:11.081Z,83.90
2018-07-20T21:02:39.339Z,84.10
2018-07-20T21:05:08.021Z,83.90
2018-07-20T21:07:36.258Z,84.20
2018-07-20T21:10:05.121Z,84.90
2018-07-20T21:12:33.342Z,85.40
2018-07-20T21:15:01.969Z,86.10
2018-07-20T21:17:30.155Z,86.40
2018-07-20T21:19:58.378Z,86.60
2018-07-20T21:22:26.864Z,86.80
2018-07-20T21:24:55.181Z,87.50
2018-07-20T21:27:23.386Z,87.40
2018-07-20T21:29:51.549Z,87.70
2018-07-20T21:32:19.919Z,88.20
2018-07-20T21:34:48.268Z,88.90
2018-07-20T21:37:16.426Z,89.50
2018-07-20T21:39:44.695Z,90.00
2018-07-20T21:42:12.886Z,89.80
2018-07-20T21:44:41.094Z,89.10
2018-07-20T21:47:09.295Z,88.50
2018-07-20T21:49:37.551Z,88.00
2018-07-20T21:52:05.810Z,87.20
2018-07-20T21:54:34.128Z,86.20
2018-07-20T21:57:02.349Z,85.60
2018-07-20T21:59:30.565Z,84.80
2018-07-20T22:01:58.767Z,84.30
2018-07-20T22:04:27.031Z,83.80
2018-07-20T22:06:55.291Z,83.80
2018-07-20T22:09:23.526Z,84.20
2018-07-20T22:11:51.707Z,84.30
2018-07-20T22:14:20.055Z,84.70
2018-07-20T22:16:48.283Z,84.80
2018-07-20T22:19:16.467Z,85.00
2018-07-20T22:21:44.660Z,85.20
2018-07-20T22:24:14.031Z,85.40
2018-07-20T22:26:42.315Z,85.50
2018-07-20T22:29:10.525Z,85.60
2018-07-20T22:31:38.799Z,85.80
2018-07-20T22:36:35.024Z,85.60
2018-07-20T22:39:04.051Z,85.70
2018-07-20T22:41:32.220Z,86.20
2018-07-20T22:44:00.647Z,86.60
2018-07-20T22:46:28.823Z,86.80
2018-07-20T22:48:57.012Z,86.70
2018-07-20T22:51:25.225Z,86.80
2018-07-20T22:53:53.507Z,87.00
2018-07-20T22:56:21.703Z,87.20
2018-07-20T22:58:49.885Z,87.30
2018-07-20T23:01:18.300Z,87.30
2018-07-20T23:03:46.674Z,87.10
2018-07-20T23:06:14.925Z,87.30
2018-07-20T23:08:43.324Z,87.40
2018-07-20T23:11:11.594Z,87.40
2018-07-20T23:13:40.042Z,87.60
2018-07-20T23:16:08.256Z,87.90
2018-07-20T23:18:36.573Z,88.00
2018-07-20T23:21:04.872Z,88.20
2018-07-20T23:23:33.046Z,88.40
2018-07-20T23:26:01.343Z,88.30
2018-07-20T23:28:29.571Z,88.10
2018-07-20T23:30:58.620Z,87.90
2018-07-20T23:33:26.828Z,88.20
2018-07-20T23:35:55.266Z,89.00
2018-07-20T23:38:23.460Z,88.30
2018-07-20T23:40:51.825Z,88.30
2018-07-20T23:43:20.102Z,88.20
2018-07-20T23:45:48.325Z,88.60
2018-07-20T23:48:16.580Z,88.50
2018-07-20T23:50:44.875Z,88.40
2018-07-20T23:53:13.139Z,88.60
2018-07-20T23:55:42.432Z,88.80
2018-07-20T23:58:10.694Z,89.20
